Terminal Aerodrome Forecast
Issued by NWS

Home | Current Version | Previous Version | Text Only | Print | Product List | Glossary On
Versions: 1 2 3 4 5 6 7 8 9 10 11 12 13
000
FTUS45 KREV 190015 AAA
TAFTVL
TAF AMD
KTVL 190015Z 1900/1924 20012G25KT 3SM -SHSN BKN015 OVC030
      TEMPO 1901/1904 1/2SM SHSN BKN007 OVC012
     FM190600 20011G16KT P6SM VCSH BKN025 OVC035
     FM191000 19005KT P6SM VCSH BKN030 BKN050
     FM192100 05007KT P6SM VCSH SCT030 BKN050=

USA.gov is the U.S. government's official web portal to all federal, state and local government web resources and services.